Date,TemperatureHighF,TemperatureAvgF,TemperatureLowF,DewpointHighF,DewpointAvgF,DewpointLowF,HumidityHigh,HumidityAvg,HumidityLow,PressureMaxIn,PressureMinIn,WindSpeedMaxMPH,WindSpeedAvgMPH,GustSpeedMaxMPH,PrecipitationSumIn
2013-1-1,67,58,49,58,52,45,92,82,66,30.06,29.81,12,5,16,0.00
2013-1-2,63,58,51,61,56,51,100,92,81,30.00,29.76,13,4,19,0.02
2013-1-3,52,50,45,52,50,45,100,99,97,30.14,29.96,9,2,14,0.11
2013-1-4,56,44,36,45,39,35,100,85,45,30.21,30.11,9,1,13,0.01
2013-1-5,57,43,30,42,34,28,100,75,33,30.28,30.15,6,1,8,0.01
2013-1-6,55,49,45,47,45,41,100,87,64,30.16,29.97,7,1,8,0.02
2013-1-7,56,47,38,45,35,-100,96,71,43,30.26,30.04,10,2,20,0.01
2013-1-8,65,52,43,52,45,38,100,79,60,30.26,30.17,7,2,11,0.00
2013-1-9,72,60,50,63,57,50,100,89,71,30.26,30.18,6,1,8,0.00
2013-1-10,70,60,54,63,57,54,100,91,60,30.31,30.22,8,2,17,0.02
2013-1-11,75,63,55,67,60,55,100,91,65,30.22,30.03,11,2,14,0.02
2013-1-12,81,68,61,68,63,61,100,85,52,30.07,29.97,7,2,11,0.01
2013-1-13,76,66,55,65,62,55,100,88,62,30.04,29.94,8,2,13,0.01
2013-1-14,78,68,61,67,63,61,100,86,60,30.06,29.97,15,5,20,0.01
2013-1-15,78,68,61,66,62,59,100,86,53,30.03,29.90,13,4,17,0.00
2013-1-16,79,69,63,66,63,62,100,85,57,29.93,29.81,16,6,24,0.00
2013-1-17,77,61,47,63,54,-100,100,84,56,29.92,29.60,19,6,30,0.14
2013-1-18,54,44,36,42,33,21,94,71,28,30.36,29.92,18,6,25,0.14
2013-1-19,64,47,34,45,37,29,95,72,46,30.35,30.09,6,1,12,0.00
2013-1-20,69,52,41,46,38,25,100,68,20,30.09,29.91,12,2,19,0.00
2013-1-21,66,52,36,41,35,29,94,59,25,29.96,29.82,14,3,20,0.00
2013-1-22,55,47,37,32,24,20,74,43,28,30.14,29.91,8,3,14,0.00
2013-1-23,54,42,32,35,25,12,74,53,28,30.24,30.04,8,2,13,0.00
2013-1-24,66,50,34,46,34,14,84,56,28,30.33,29.96,18,7,22,0.00
2013-1-25,47,37,28,33,23,10,63,55,45,30.33,30.01,10,3,15,0.00
2013-1-26,60,46,36,40,34,29,89,65,35,30.18,29.98,10,2,14,0.00
2013-1-27,54,43,34,37,34,27,91,72,49,30.37,30.18,8,3,16,0.00
2013-1-28,68,51,41,54,44,35,99,79,60,30.34,30.14,6,2,12,0.00
2013-1-29,76,61,47,65,57,47,100,90,61,30.14,29.97,11,3,19,0.00
2013-1-30,74,69,62,68,65,62,100,87,70,29.97,29.48,25,11,37,0.12
2013-1-31,61,50,43,61,29,21,99,46,26,30.05,29.59,20,7,26,0.36
2013-2-1,57,45,32,33,26,15,75,50,20,30.22,30.01,17,5,24,0.00
2013-2-2,59,42,27,38,27,16,76,57,29,30.24,29.96,13,3,17,0.00
2013-2-3,62,50,40,37,33,29,77,55,30,29.96,29.78,15,5,24,0.00
2013-2-4,56,45,32,39,31,25,89,62,31,30.01,29.90,5,1,10,0.00
2013-2-5,69,54,37,51,43,36,100,72,37,29.94,29.81,15,4,22,0.00
2013-2-6,74,59,47,54,47,34,100,70,26,30.05,29.88,7,1,11,0.00
2013-2-7,57,52,47,56,52,46,100,98,87,30.03,29.59,9,3,19,1.62
2013-2-8,64,54,47,55,48,-100,100,84,60,29.93,29.61,11,4,21,0.90
2013-2-9,61,48,37,49,33,22,92,63,23,30.20,29.93,10,2,16,0.00
2013-2-10,65,51,34,53,44,33,98,79,58,30.27,30.06,10,2,17,0.00
2013-2-11,66,61,54,64,61,52,100,99,92,30.09,29.92,18,5,24,0.75
2013-2-12,63,57,51,60,55,51,100,95,65,30.00,29.76,7,2,14,1.37
2013-2-13,69,56,49,64,53,49,100,90,59,29.77,29.56,17,5,31,1.05
2013-2-14,55,49,43,49,41,-100,99,80,56,29.94,29.73,10,2,13,0.04
2013-2-15,64,49,35,47,40,35,100,76,35,29.97,29.83,7,1,11,0.00
2013-2-16,52,42,36,43,39,30,100,89,62,29.90,29.71,20,4,26,0.05
2013-2-17,47,37,29,29,18,8,79,50,23,30.18,29.91,15,4,22,0.01
2013-2-18,56,40,26,32,24,18,88,58,26,30.29,30.13,9,1,12,0.00
2013-2-19,60,49,36,57,47,31,100,92,73,30.13,29.84,9,3,17,0.19
2013-2-20,59,48,34,49,34,24,100,61,28,30.03,29.91,10,2,12,0.01
2013-2-21,66,49,35,44,38,33,100,71,32,30.06,29.94,7,1,11,0.00
2013-2-22,55,49,44,55,46,41,100,91,72,30.06,29.93,8,4,18,0.02
2013-2-23,57,47,43,57,47,43,100,100,100,29.93,29.67,10,2,16,1.36
2013-2-24,69,54,47,51,48,43,100,85,40,29.87,29.65,7,2,13,0.09
2013-2-25,48,45,42,48,44,38,100,94,76,29.96,29.82,12,4,21,0.23
2013-2-26,73,60,45,67,57,43,100,90,74,29.83,29.43,23,6,36,1.23
2013-2-27,59,53,47,56,43,37,98,69,52,29.77,29.57,15,6,18,0.04
2013-2-28,60,51,45,42,36,30,85,59,36,29.77,29.65,16,6,28,0.00
2013-3-1,53,46,39,36,32,30,74,59,41,29.83,29.73,11,3,14,0.00
2013-3-2,49,43,36,36,33,30,89,70,48,29.80,29.72,15,4,22,0.00
2013-3-3,47,40,33,36,27,22,88,63,43,29.88,29.77,11,4,18,0.00
2013-3-4,57,42,28,36,21,-100,84,52,22,30.04,29.88,9,2,14,0.00
2013-3-5,65,55,41,56,43,35,98,69,36,29.98,29.58,17,6,24,0.03
2013-3-6,59,48,40,56,30,22,89,52,36,29.95,29.57,24,10,34,0.03
2013-3-7,61,46,33,36,31,28,87,59,32,30.09,29.95,12,3,17,0.00
2013-3-8,60,47,36,36,29,22,90,55,23,30.15,30.02,16,4,20,0.00
2013-3-9,63,47,32,39,32,29,91,61,34,30.19,30.08,11,2,16,0.00
2013-3-11,71,67,55,60,56,52,93,68,53,29.98,29.77,13,6,25,0.00
2013-3-12,72,65,58,65,59,44,100,82,39,29.82,29.67,15,6,21,0.12
2013-3-13,65,56,44,47,33,23,84,48,22,30.00,29.82,14,-10,24,0.01
2013-3-14,57,46,36,32,24,19,76,44,24,30.17,29.97,12,4,19,0.00
2013-3-15,68,51,34,46,34,25,88,57,27,30.09,29.89,11,3,18,0.00
2013-3-16,79,66,54,48,44,39,79,49,26,29.90,29.71,19,8,28,0.00
2013-3-17,75,66,58,56,51,43,80,59,42,29.90,29.80,16,7,21,0.00
2013-3-18,68,62,56,61,57,51,100,86,68,29.95,29.71,14,2,27,0.42
2013-3-19,76,62,52,60,48,28,100,69,21,29.87,29.68,11,3,20,0.57
2013-3-20,62,54,43,39,30,16,83,44,21,29.97,29.70,11,2,18,0.01
2013-3-21,58,48,38,38,24,10,86,44,16,29.81,29.65,13,4,22,0.00
2013-3-22,55,44,36,40,24,16,70,45,27,29.95,29.81,7,3,12,0.00
2013-3-23,55,47,42,53,44,35,100,90,65,29.93,29.75,12,2,16,0.32
2013-3-24,58,51,46,58,51,45,100,100,96,29.75,29.35,17,5,20,2.66
2013-3-25,54,48,43,48,33,21,100,60,28,29.83,29.44,22,8,33,0.03
2013-3-26,51,43,34,32,26,22,74,53,36,30.04,29.83,12,5,25,0.00
2013-3-27,58,46,32,33,27,-100,87,53,27,30.13,30.03,11,3,18,0.00
2013-3-28,61,46,32,34,29,23,91,58,24,30.17,30.04,12,3,19,0.00
2013-3-29,66,50,34,42,32,23,94,57,20,30.22,30.06,7,2,13,0.00
2013-3-30,74,59,48,52,43,-100,94,63,31,30.11,29.92,12,4,18,0.00
2013-3-31,74,63,56,62,55,-100,99,78,53,29.95,29.75,19,7,22,0.23
2013-4-1,75,65,58,63,59,53,100,84,53,29.81,29.72,13,3,18,0.32
2013-4-2,71,58,47,53,47,42,96,70,36,30.00,29.81,10,2,14,0.00
2013-4-3,65,56,47,55,47,41,100,74,43,30.11,29.94,15,4,18,0.00
2013-4-4,55,52,48,54,49,43,100,91,71,30.11,29.72,11,4,18,0.43
2013-4-5,58,49,43,50,46,42,100,90,69,29.88,29.73,12,4,18,0.04
2013-4-8,79,73,63,62,60,56,94,65,45,30.06,29.97,11,4,19,0.00
2013-4-9,82,67,57,65,61,56,100,83,43,30.07,29.99,12,-7,16,0.00
2013-4-10,81,69,57,66,61,55,100,79,42,30.04,29.90,13,-3,20,0.00
2013-4-11,80,71,61,71,67,61,100,89,70,29.89,29.70,13,5,25,0.00
2013-4-12,79,72,69,74,71,63,100,95,77,29.72,29.59,16,6,25,0.85
2013-4-13,77,65,52,63,51,43,95,64,33,29.89,29.70,8,-6,16,0.46
2013-4-14,72,62,52,63,58,52,100,87,61,29.96,29.82,8,2,14,0.34
2013-4-15,72,65,62,68,64,61,100,96,83,30.03,29.76,13,2,20,0.52
2013-4-16,79,68,57,66,62,57,100,83,52,30.12,30.03,6,1,9,0.01
2013-4-17,82,69,57,67,61,57,100,81,50,30.11,30.00,8,1,14,0.01
2013-4-18,80,71,62,68,60,-100,100,81,57,30.02,29.90,10,2,20,0.00
2013-4-19,81,72,67,72,69,66,100,90,70,29.91,29.71,20,7,31,0.79
2013-4-20,66,55,47,66,50,42,100,84,53,30.11,29.80,11,4,18,1.23
2013-4-21,67,56,42,52,46,41,100,73,45,30.21,30.11,14,4,25,0.01
2013-4-22,68,57,49,51,45,36,81,64,52,30.18,30.01,16,7,26,0.01
2013-4-23,69,58,50,57,52,47,96,81,62,30.09,30.00,11,3,17,0.00
2013-4-24,79,64,47,62,55,47,100,78,44,30.06,29.93,12,3,16,0.00
2013-4-25,80,68,60,71,64,60,100,88,58,30.10,29.95,14,2,22,0.50
2013-4-26,75,66,59,63,53,39,100,69,28,30.25,30.09,12,3,17,0.50
2013-4-27,73,63,55,62,53,45,96,73,38,30.23,30.11,10,2,12,0.01
2013-4-28,74,66,56,67,61,50,100,85,71,30.11,29.91,13,3,17,0.02
2013-4-29,77,67,63,71,66,62,100,95,69,29.94,29.82,13,2,24,0.39
2013-4-30,76,66,61,68,64,61,100,94,71,29.97,29.83,9,2,13,0.06
2013-5-1,71,64,59,63,60,57,100,88,67,30.06,29.95,9,4,18,0.06
2013-5-2,73,67,64,66,63,58,97,86,70,30.05,29.99,10,5,26,0.02
2013-5-3,68,62,58,62,57,47,100,84,57,29.99,29.89,12,5,24,0.04
2013-5-4,66,60,54,62,56,47,100,88,61,29.89,29.77,13,5,20,0.17
2013-5-5,70,64,61,67,63,60,100,98,81,29.78,29.66,11,5,21,0.99
2013-5-6,72,64,56,64,55,46,100,78,41,29.80,29.70,12,3,18,0.29
2013-5-7,71,60,52,59,55,51,100,84,57,29.85,29.77,13,2,14,0.01
2013-5-8,79,65,50,62,56,50,100,77,43,29.92,29.83,13,4,18,0.01
2013-5-9,85,73,60,65,60,55,94,69,38,29.96,29.88,8,3,13,0.00
2013-5-10,85,73,63,65,59,-100,90,68,42,29.97,29.88,15,4,20,0.00
2013-5-11,82,74,68,70,66,61,100,78,51,29.90,29.74,12,4,19,0.00
2013-5-12,83,74,64,70,59,-100,93,65,33,29.88,29.72,11,4,17,0.00
2013-5-13,74,63,53,52,44,35,81,53,27,30.02,29.87,8,-6,19,0.00
2013-5-14,77,61,49,54,42,-100,91,57,25,30.14,30.01,11,-12,14,0.00
2013-5-15,87,71,58,64,57,53,91,64,39,30.05,29.87,14,6,20,0.00
2013-5-16,84,69,64,68,43,-100,84,70,50,29.94,29.87,11,4,14,0.00
2013-5-17,87,74,65,69,58,-100,100,73,42,29.99,29.91,12,-17,13,0.00
2013-5-18,83,74,66,70,67,65,100,82,56,30.02,29.94,10,3,17,0.01
2013-5-19,81,74,68,73,70,64,100,88,69,30.01,29.93,12,2,15,0.05
2013-5-20,79,72,67,75,71,67,100,97,78,29.98,29.90,11,2,18,0.41
2013-5-21,78,72,66,77,70,66,100,95,79,29.95,29.86,6,1,13,0.46
2013-5-22,84,75,65,73,68,65,100,82,56,29.90,29.80,10,2,14,0.03
2013-5-23,86,76,67,73,65,-100,100,78,50,29.84,29.71,11,3,17,0.00
2013-5-24,83,74,61,67,56,37,84,57,26,30.04,29.73,13,4,24,0.00
2013-5-25,79,65,50,55,45,35,94,55,23,30.18,30.04,14,2,18,0.00
2013-5-26,84,69,55,61,57,52,98,68,35,30.14,30.02,10,-12,12,0.00
2013-5-27,83,72,59,67,62,58,100,73,49,30.13,30.03,7,1,11,0.00
2013-5-28,83,73,63,70,64,61,100,76,48,30.12,30.06,8,-12,15,0.00
2013-5-29,83,73,62,69,64,61,100,77,52,30.13,30.03,8,-12,12,0.00
2013-5-30,86,75,63,73,68,63,100,80,55,30.14,30.04,7,1,13,0.00
2013-5-31,85,76,67,74,70,67,100,82,59,30.09,30.00,12,-4,17,0.00
2013-6-1,85,76,66,73,69,66,100,80,56,30.03,29.94,14,3,14,0.00
2013-6-2,85,76,68,76,70,-100,100,87,62,29.98,29.81,11,3,14,0.20
2013-6-3,81,76,72,77,74,67,100,93,79,29.85,29.72,11,3,22,0.66
2013-6-4,88,76,69,76,72,68,100,88,60,29.91,29.79,13,2,16,0.53
2013-6-5,81,74,71,76,73,71,100,98,83,29.93,29.83,10,2,13,0.75
2013-6-6,80,74,70,75,72,70,100,94,77,29.85,29.58,8,2,14,1.09
2013-6-7,84,76,72,75,73,72,100,91,68,29.73,29.34,16,-8,27,0.85
2013-6-8,87,79,73,77,73,69,100,84,56,29.97,29.73,9,4,16,0.01
2013-6-9,86,79,75,77,75,73,100,88,69,30.01,29.94,10,2,16,0.00
2013-6-10,85,78,70,78,75,68,100,91,73,29.99,29.85,14,5,32,0.42
2013-6-11,88,77,70,76,73,70,100,89,61,29.92,29.80,10,-10,16,0.42
2013-6-12,94,83,73,78,75,71,100,79,48,29.88,29.79,10,-12,13,0.31
2013-6-13,94,86,77,78,76,71,98,74,49,29.80,29.60,16,5,21,0.01
2013-6-14,87,80,70,74,65,57,92,63,39,29.87,29.61,15,4,19,0.00
2013-6-15,84,75,65,69,62,57,97,68,43,30.00,29.87,8,2,12,0.00
2013-6-16,87,75,63,68,64,59,97,70,42,30.05,29.94,10,2,16,0.00
2013-6-17,87,77,68,76,71,67,100,84,61,29.97,29.84,12,3,20,0.11
2013-7-26,88,81,77,77,64,-100,97,77,63,29.92,29.88,12,3,14,0.00
2013-7-27,86,80,73,79,76,73,100,89,72,29.92,29.78,6,2,13,0.40
2013-7-28,86,79,75,78,76,71,100,89,66,29.90,29.79,7,1,10,0.39
2013-7-29,91,77,72,78,39,-100,100,74,59,30.02,29.88,8,1,19,1.80
2013-7-30,90,78,72,80,75,72,100,92,69,30.05,29.98,6,1,8,0.17
2013-7-31,87,77,73,79,75,73,100,95,73,30.00,29.90,6,1,12,0.88
2013-8-1,83,76,73,77,74,73,100,94,77,29.90,29.80,8,3,12,0.88
2013-8-2,87,77,74,79,75,74,100,94,70,29.90,29.81,10,3,14,0.04
2013-8-5,85,81,72,73,68,63,89,64,53,29.93,29.86,7,3,13,0.00
2013-8-6,86,76,70,78,71,68,100,84,58,29.92,29.83,9,1,14,0.00
2013-8-7,87,79,72,75,72,69,100,81,56,29.95,29.87,6,1,11,0.00
2013-8-8,89,79,72,80,61,-100,100,82,59,29.93,29.88,16,1,16,0.00
2013-8-9,90,81,75,80,73,-100,100,84,63,29.99,29.89,8,2,13,0.01
2013-8-10,92,84,74,80,76,74,100,80,58,30.01,29.94,12,4,14,0.01
2013-8-11,94,85,77,81,76,70,100,79,46,30.02,29.93,10,4,13,0.00
2013-8-12,94,82,77,80,77,71,99,89,54,29.97,29.84,8,3,11,0.00
2013-8-13,93,83,76,81,74,-100,100,80,57,29.86,29.71,12,5,17,0.00
2013-8-14,85,77,75,81,73,-100,100,91,76,29.88,29.73,8,3,13,0.63
2013-8-15,75,52,64,75,16,-100,100,72,100,29.96,29.85,14,3,14,1.63
2013-8-16,75,61,65,75,38,-100,100,83,100,29.96,29.89,8,3,14,0.02
2013-8-17,76,72,70,76,57,-100,100,91,100,30.03,29.90,6,1,10,0.04
2013-8-21,89,79,72,82,76,72,100,91,66,30.09,29.99,7,-20,8,0.01
2013-8-22,88,80,74,82,76,74,100,90,70,30.03,29.89,9,1,10,0.00
2013-8-23,91,79,73,78,75,72,100,87,58,29.93,29.84,14,2,20,0.00
2013-8-24,81,76,72,80,74,70,100,93,73,30.08,29.88,13,2,16,0.56
2013-8-25,82,73,66,70,61,-100,100,76,51,30.18,30.09,12,3,24,0.31
2013-8-26,84,74,66,71,67,64,100,82,58,30.14,30.00,8,2,13,0.00
2013-8-27,86,74,66,75,69,66,100,86,55,30.02,29.91,5,-62,6,0.00
2013-8-28,90,85,77,74,72,69,88,65,53,29.89,29.82,7,3,8,0.00
2013-8-29,95,82,72,79,75,72,100,82,51,29.85,29.73,8,3,12,0.04
2013-8-30,86,79,74,81,76,73,100,92,70,29.88,29.79,7,2,11,0.05
2013-9-12,91,77,69,75,49,-100,100,70,46,29.96,29.75,9,2,10,0.00
2013-9-13,91,75,73,78,49,-100,100,77,61,29.75,29.62,8,3,10,0.01
2013-9-14,82,76,69,75,60,-100,100,76,68,29.93,29.67,10,4,13,0.01
2013-9-15,88,73,67,75,52,-100,100,79,59,30.02,29.93,7,2,16,0.00
2013-9-16,88,72,71,85,63,-100,100,90,65,30.00,29.90,5,1,10,0.03
2013-9-17,80,66,68,72,35,-100,100,68,58,30.09,29.95,13,3,16,0.03
2013-9-18,69,52,61,64,-11,-100,91,48,76,30.10,30.04,5,2,7,0.00
2013-9-19,84,47,63,66,-37,-100,63,22,43,30.03,29.95,94,-104,152,0.00
2013-9-20,85,72,64,70,2,-100,100,44,56,29.97,29.83,4,1,8,0.00
2013-9-21,84,75,66,75,53,-100,100,77,65,29.84,29.61,12,3,17,0.01
2013-9-22,78,71,68,74,67,-100,100,90,72,29.74,29.57,9,3,12,0.15
2013-9-23,80,70,60,68,59,-100,100,78,47,29.91,29.74,7,1,11,0.01
2013-9-24,80,59,59,70,-1,-100,100,48,54,29.93,29.79,10,2,11,0.00
2013-9-25,78,68,66,69,32,-100,100,69,73,29.79,29.67,8,3,13,0.00
2013-9-26,74,64,62,70,43,-100,100,80,74,29.83,29.69,10,-23,13,0.38
2013-9-27,77,58,60,66,-4,-100,100,46,60,29.98,29.83,12,-45,18,0.01
2013-9-28,74,57,58,64,1,-100,88,46,67,30.03,29.96,15,6,152,0.00
2013-9-29,74,54,59,65,-17,-100,100,40,59,29.98,29.91,152,17,152,0.00
2013-9-30,75,53,58,59,-15,-100,100,32,53,29.95,29.87,12,2,12,0.00
2013-10-1,67,22,67,-100,-100,-100,0,0,100,29.99,29.94,152,25,152,0.00
2013-10-2,84,55,59,68,-24,-100,100,28,50,30.02,29.94,152,11,152,0.00
2013-10-10,77,66,56,63,42,-100,100,73,52,29.94,29.83,14,3,18,0.00
2013-10-11,82,56,64,65,-32,-100,100,31,53,29.88,29.78,6,2,11,0.00
2013-10-12,81,69,64,71,20,-100,100,57,57,29.92,29.82,6,1,10,0.00
2013-10-13,73,68,67,69,44,-100,100,82,80,30.01,29.91,8,2,13,0.00
2013-10-14,73,69,67,69,67,66,100,95,84,30.01,29.93,14,6,18,0.00
2013-10-15,73,66,62,66,56,-100,100,82,67,29.99,29.87,12,4,16,0.00
2013-10-16,72,65,62,68,55,-100,100,87,75,29.91,29.84,7,1,11,0.00
2013-10-17,82,68,58,78,20,-100,100,59,61,29.87,29.75,9,3,11,0.00
2013-10-18,82,73,68,74,38,-100,100,75,72,29.85,29.77,4,-20,7,0.01
2013-10-19,82,72,68,81,57,-100,100,83,68,29.83,29.73,8,1,11,0.01
2013-10-20,71,64,59,62,45,-100,100,75,65,29.94,29.80,9,2,12,0.01
2013-10-21,70,62,56,64,58,55,99,89,67,29.99,29.88,9,1,12,0.01
2013-10-22,69,64,60,65,30,-100,100,78,83,29.90,29.72,2,0,3,0.01
2013-10-23,73,62,58,64,21,-100,100,59,28,29.82,29.65,14,4,19,0.03
2013-10-24,66,44,41,47,-7,-100,81,39,37,30.07,29.91,8,2,9,0.00
2013-10-25,60,30,48,47,-73,-100,86,14,62,30.22,30.03,152,19,152,0.00
2013-10-26,66,38,35,47,-48,-100,100,29,48,30.20,30.02,14,2,14,0.00
2013-10-27,74,44,42,54,-45,-100,96,31,48,30.02,29.94,156,5,156,0.00
2013-10-28,73,61,54,61,13,-100,100,53,57,30.11,30.00,2,0,6,0.00
2013-10-29,78,56,51,70,5,-100,100,54,47,30.20,30.10,8,-23,10,0.00
2013-10-30,78,62,53,72,41,-100,100,70,51,30.19,30.05,5,1,9,0.00
2013-10-31,80,66,53,69,61,53,100,88,63,30.08,29.86,11,3,17,0.00
2013-11-1,79,73,69,72,55,-100,100,81,69,29.84,29.62,14,7,18,0.48
2013-11-2,72,66,57,68,56,-100,100,81,46,29.83,29.62,7,2,12,0.44
2013-11-3,66,54,45,53,38,-100,95,67,38,30.16,29.83,14,3,19,0.00
2013-11-4,63,49,44,44,17,-100,98,55,35,30.30,30.16,14,4,18,0.00
2013-11-5,63,52,42,59,18,-100,100,68,74,30.30,30.20,12,5,16,0.00
2013-11-6,75,62,55,65,51,-100,100,82,68,30.19,29.96,8,4,12,0.00
2013-11-7,76,45,64,72,-36,-100,100,34,66,29.96,29.81,10,2,12,0.00
2013-11-8,61,42,48,38,-22,-100,65,29,32,30.16,29.98,8,4,16,0.00
2013-11-9,63,51,39,52,-6,-100,100,46,61,30.22,30.11,3,1,8,0.00
2013-11-10,70,34,52,56,-54,-100,83,20,46,30.12,30.01,152,24,152,0.00
2013-11-11,65,46,47,49,-46,-100,87,21,46,30.16,30.05,8,3,14,0.00
2013-11-12,72,50,41,51,-16,-100,76,28,36,30.22,29.87,20,4,29,0.00
2013-11-13,48,34,31,31,-24,-100,75,31,31,30.38,30.22,28,7,28,0.00
2013-11-14,62,37,28,44,-35,-100,94,26,49,30.35,30.22,3,1,7,0.00
2013-11-15,61,32,43,56,-60,-100,99,23,83,30.18,30.04,3,0,5,0.00
2013-11-16,75,17,75,-100,-100,-100,0,0,100,30.06,30.01,152,25,152,0.00
2013-11-17,76,60,56,73,-49,-100,100,31,98,30.02,29.87,3,-61,5,0.00
2013-11-18,81,59,65,75,-2,-100,100,49,64,29.85,29.69,10,4,11,0.00
2013-11-19,60,51,51,44,4,-100,72,38,33,29.99,29.79,16,-54,18,0.00
2013-11-20,57,43,46,46,-2,-100,72,47,62,30.19,30.07,11,-29,17,0.00
2013-11-21,68,47,51,57,-38,-100,86,34,78,30.25,30.17,9,-25,12,0.00
2013-11-22,74,51,58,68,-78,-100,100,14,100,30.20,30.05,152,-82,152,0.22
2013-11-23,68,56,62,68,22,-100,100,74,100,29.99,29.87,152,-26,152,0.10
2013-11-24,46,26,39,26,-73,-100,45,10,32,30.35,30.01,152,-47,152,0.00
2013-11-25,50,19,30,15,-77,-100,39,7,32,30.38,30.24,8,3,12,0.00
2013-11-26,71,63,66,71,45,-100,100,87,100,29.72,29.46,16,7,24,1.51
2013-11-27,70,51,36,70,42,-100,100,93,95,30.07,29.41,18,8,22,1.33
2013-11-28,47,34,29,27,-30,-100,66,31,43,30.30,30.08,8,-53,13,0.05
2013-11-29,55,34,30,39,-33,-100,84,29,41,30.40,30.32,152,-28,152,0.00
2013-11-30,57,35,40,42,-27,-100,75,35,53,30.40,30.19,11,-31,13,0.00
2013-12-1,58,32,46,49,-67,-100,86,19,84,30.17,29.91,4,-54,8,0.00
2013-12-2,60,29,51,-100,-100,-100,0,0,100,29.84,29.71,3,-76,10,0.00
2013-12-3,68,23,50,-100,-100,-100,0,0,100,29.84,29.75,152,-62,152,0.00
2013-12-4,74,55,68,68,-23,-100,84,39,83,29.93,29.87,7,-74,8,0.00
2013-12-5,78,63,62,74,11,-100,100,56,62,30.04,29.94,12,5,16,0.00
2013-12-6,79,64,68,72,-22,-100,100,37,62,30.01,29.93,18,-146,20,0.00
2013-12-9,66,38,50,66,-34,-100,100,41,100,30.05,29.94,152,8,152,0.00
2013-12-10,73,57,56,73,19,-100,100,67,68,30.10,29.83,152,14,152,0.03
2013-12-11,50,34,38,38,-20,-100,72,38,62,30.31,30.20,152,16,152,0.03
2013-12-17,66,63,59,44,39,34,49,41,32,30.07,29.95,13,9,17,0.00